Terminal Aerodrome Forecast
Issued by NWS Knoxville/Tri Cities, TN

Current Version | Previous Version | Text Only | Print | Product List | Glossary On
Versions: 1 2 3 4 5 6 7 8 9 10 11 12 13 14 15 16 17 18 19 20 21 22 23 24 25 26 27
000
FTUS44 KMRX 220527
TAFCHA
TAF
KCHA 220527Z 2206/2306 09003KT P6SM OVC025
     FM220830 VRB04KT P6SM OVC015
     FM221800 15007KT P6SM OVC025
     FM230200 16007KT P6SM -SHRA OVC015=

USA.gov is the U.S. government's official web portal to all federal, state and local government web resources and services.